Troy, Virginia
Current Conditions -  °F | °C
As of 10:55 AM on Thursday 23 Oct 2014 (Local Time) from KGVE Reporting Station
Clear Clear  
Wind Chill: 59°   Ceiling: Unl
Heat Index: 59°   Visibility: 10mi
Dew Point: 43°   Wind: 6mph
Humidity: 55%   Direction: 340°NNW
Pressure: 29.94"   Gusts: NA
Location:  37.99°N, 78.25°W
Report Text: KGVE 231455Z AUTO 34005KT 10SM CLR 15/06 A2994 RMK AO1 T01510061
Loading
Personal Weather Stations






























Interactive Weather Map
Tropical Storm Tracking
New forecast layout! Learn more

10-Day Weather Forecast

Advertisements
Track Severe Weather on mobile